sensor_id;sensor_type;location;lat;lon;timestamp;pressure;altitude;pressure_sealevel;temperature;humidity
68077;BME280;54866;53.458;14.540;2023-01-26T00:00:27;101568.09;;;-2.58;100.00
68077;BME280;54866;53.458;14.540;2023-01-26T00:02:58;101562.76;;;-2.58;100.00
68077;BME280;54866;53.458;14.540;2023-01-26T00:05:27;101561.71;;;-2.58;100.00
68077;BME280;54866;53.458;14.540;2023-01-26T00:07:58;101557.77;;;-2.59;100.00
68077;BME280;54866;53.458;14.540;2023-01-26T00:10:28;101545.19;;;-2.61;100.00
68077;BME280;54866;53.458;14.540;2023-01-26T00:12:57;101543.09;;;-2.59;100.00
68077;BME280;54866;53.458;14.540;2023-01-26T00:15:27;101539.64;;;-2.58;100.00
68077;BME280;54866;53.458;14.540;2023-01-26T00:17:56;101537.92;;;-2.59;100.00
68077;BME280;54866;53.458;14.540;2023-01-26T00:20:26;101530.36;;;-2.62;100.00
68077;BME280;54866;53.458;14.540;2023-01-26T00:22:56;101523.96;;;-2.62;100.00
68077;BME280;54866;53.458;14.540;2023-01-26T00:25:25;101526.23;;;-2.64;100.00
68077;BME280;54866;53.458;14.540;2023-01-26T00:27:55;101527.62;;;-2.65;100.00
68077;BME280;54866;53.458;14.540;2023-01-26T00:30:24;101521.41;;;-2.65;100.00
68077;BME280;54866;53.458;14.540;2023-01-26T00:32:54;101519.69;;;-2.66;100.00
68077;BME280;54866;53.458;14.540;2023-01-26T00:35:25;101514.88;;;-2.66;100.00
68077;BME280;54866;53.458;14.540;2023-01-26T00:37:54;101512.12;;;-2.67;100.00
68077;BME280;54866;53.458;14.540;2023-01-26T00:40:24;101517.45;;;-2.66;100.00
68077;BME280;54866;53.458;14.540;2023-01-26T00:42:53;101516.94;;;-2.66;100.00
68077;BME280;54866;53.458;14.540;2023-01-26T00:45:23;101510.04;;;-2.66;100.00
68077;BME280;54866;53.458;14.540;2023-01-26T00:47:52;101507.10;;;-2.65;100.00
68077;BME280;54866;53.458;14.540;2023-01-26T00:50:22;101503.64;;;-2.64;100.00
68077;BME280;54866;53.458;14.540;2023-01-26T00:52:51;101507.41;;;-2.63;100.00
68077;BME280;54866;53.458;14.540;2023-01-26T00:55:22;101507.40;;;-2.62;100.00
68077;BME280;54866;53.458;14.540;2023-01-26T00:57:51;101502.92;;;-2.63;100.00
68077;BME280;54866;53.458;14.540;2023-01-26T01:00:21;101497.07;;;-2.63;100.00
68077;BME280;54866;53.458;14.540;2023-01-26T01:02:51;101492.91;;;-2.62;100.00
68077;BME280;54866;53.458;14.540;2023-01-26T01:05:23;101494.11;;;-2.61;100.00
68077;BME280;54866;53.458;14.540;2023-01-26T01:07:53;101489.29;;;-2.62;100.00
68077;BME280;54866;53.458;14.540;2023-01-26T01:10:23;101491.20;;;-2.64;100.00
68077;BME280;54866;53.458;14.540;2023-01-26T01:12:54;101483.80;;;-2.65;100.00
68077;BME280;54866;53.458;14.540;2023-01-26T01:15:24;101479.65;;;-2.64;100.00
68077;BME280;54866;53.458;14.540;2023-01-26T01:17:53;101475.48;;;-2.61;100.00
68077;BME280;54866;53.458;14.540;2023-01-26T01:20:23;101471.49;;;-2.58;100.00
68077;BME280;54866;53.458;14.540;2023-01-26T01:22:52;101466.79;;;-2.54;100.00
68077;BME280;54866;53.458;14.540;2023-01-26T01:25:22;101467.95;;;-2.51;100.00
68077;BME280;54866;53.458;14.540;2023-01-26T01:27:51;101468.09;;;-2.49;100.00
68077;BME280;54866;53.458;14.540;2023-01-26T01:30:21;101471.17;;;-2.48;100.00
68077;BME280;54866;53.458;14.540;2023-01-26T01:32:50;101472.20;;;-2.46;100.00
68077;BME280;54866;53.458;14.540;2023-01-26T01:35:20;101467.20;;;-2.47;100.00
68077;BME280;54866;53.458;14.540;2023-01-26T01:37:50;101467.17;;;-2.45;100.00
68077;BME280;54866;53.458;14.540;2023-01-26T01:40:20;101461.98;;;-2.44;100.00
68077;BME280;54866;53.458;14.540;2023-01-26T01:42:49;101463.71;;;-2.44;100.00
68077;BME280;54866;53.458;14.540;2023-01-26T01:45:38;101458.36;;;-2.45;100.00
68077;BME280;54866;53.458;14.540;2023-01-26T01:48:14;101459.05;;;-2.43;100.00
68077;BME280;54866;53.458;14.540;2023-01-26T01:50:46;101450.42;;;-2.44;100.00
68077;BME280;54866;53.458;14.540;2023-01-26T01:53:19;101447.86;;;-2.46;100.00
68077;BME280;54866;53.458;14.540;2023-01-26T01:55:56;101438.02;;;-2.45;100.00
68077;BME280;54866;53.458;14.540;2023-01-26T01:58:27;101431.86;;;-2.49;100.00
68077;BME280;54866;53.458;14.540;2023-01-26T02:00:58;101426.16;;;-2.49;100.00
68077;BME280;54866;53.458;14.540;2023-01-26T02:03:29;101426.52;;;-2.50;100.00
68077;BME280;54866;53.458;14.540;2023-01-26T02:06:02;101430.33;;;-2.50;100.00
68077;BME280;54866;53.458;14.540;2023-01-26T02:08:37;101423.59;;;-2.50;100.00
68077;BME280;54866;53.458;14.540;2023-01-26T02:11:09;101418.41;;;-2.49;100.00
68077;BME280;54866;53.458;14.540;2023-01-26T02:13:41;101417.38;;;-2.50;100.00
68077;BME280;54866;53.458;14.540;2023-01-26T02:16:12;101418.59;;;-2.50;100.00
68077;BME280;54866;53.458;14.540;2023-01-26T02:18:42;101410.14;;;-2.50;100.00
68077;BME280;54866;53.458;14.540;2023-01-26T02:21:14;101406.51;;;-2.49;100.00
68077;BME280;54866;53.458;14.540;2023-01-26T02:23:52;101403.39;;;-2.49;100.00
68077;BME280;54866;53.458;14.540;2023-01-26T02:26:25;101402.71;;;-2.50;100.00
68077;BME280;54866;53.458;14.540;2023-01-26T02:28:55;101401.15;;;-2.49;100.00
68077;BME280;54866;53.458;14.540;2023-01-26T02:31:27;101402.18;;;-2.48;100.00
68077;BME280;54866;53.458;14.540;2023-01-26T02:33:57;101401.14;;;-2.49;100.00
68077;BME280;54866;53.458;14.540;2023-01-26T02:36:28;101399.81;;;-2.52;100.00
68077;BME280;54866;53.458;14.540;2023-01-26T02:39:19;101394.34;;;-2.55;100.00
68077;BME280;54866;53.458;14.540;2023-01-26T02:41:51;101390.27;;;-2.60;100.00
68077;BME280;54866;53.458;14.540;2023-01-26T02:44:38;101393.72;;;-2.61;100.00
68077;BME280;54866;53.458;14.540;2023-01-26T02:47:15;101389.59;;;-2.62;100.00
68077;BME280;54866;53.458;14.540;2023-01-26T02:49:45;101392.54;;;-2.64;100.00
68077;BME280;54866;53.458;14.540;2023-01-26T02:52:20;101393.77;;;-2.65;100.00
68077;BME280;54866;53.458;14.540;2023-01-26T02:54:50;101398.61;;;-2.65;100.00
68077;BME280;54866;53.458;14.540;2023-01-26T02:57:40;101397.41;;;-2.66;100.00
68077;BME280;54866;53.458;14.540;2023-01-26T03:00:13;101398.96;;;-2.66;100.00
68077;BME280;54866;53.458;14.540;2023-01-26T03:02:44;101398.30;;;-2.68;100.00
68077;BME280;54866;53.458;14.540;2023-01-26T03:05:14;101405.89;;;-2.68;100.00
68077;BME280;54866;53.458;14.540;2023-01-26T03:07:44;101408.13;;;-2.67;100.00
68077;BME280;54866;53.458;14.540;2023-01-26T03:10:14;101409.18;;;-2.69;100.00
68077;BME280;54866;53.458;14.540;2023-01-26T03:12:45;101408.15;;;-2.70;100.00
68077;BME280;54866;53.458;14.540;2023-01-26T03:15:14;101403.66;;;-2.70;100.00
68077;BME280;54866;53.458;14.540;2023-01-26T03:18:06;101402.79;;;-2.69;100.00
68077;BME280;54866;53.458;14.540;2023-01-26T03:20:54;101402.94;;;-2.67;100.00
68077;BME280;54866;53.458;14.540;2023-01-26T03:23:41;101406.39;;;-2.67;100.00
68077;BME280;54866;53.458;14.540;2023-01-26T03:26:28;101403.63;;;-2.67;100.00
68077;BME280;54866;53.458;14.540;2023-01-26T03:29:15;101404.64;;;-2.65;100.00
68077;BME280;54866;53.458;14.540;2023-01-26T03:31:44;101403.09;;;-2.66;100.00
68077;BME280;54866;53.458;14.540;2023-01-26T03:34:14;101403.44;;;-2.66;100.00
68077;BME280;54866;53.458;14.540;2023-01-26T03:36:44;101399.27;;;-2.63;100.00
68077;BME280;54866;53.458;14.540;2023-01-26T03:39:14;101396.48;;;-2.62;100.00
68077;BME280;54866;53.458;14.540;2023-01-26T03:41:57;101394.95;;;-2.64;100.00
68077;BME280;54866;53.458;14.540;2023-01-26T03:44:44;101387.55;;;-2.65;100.00
68077;BME280;54866;53.458;14.540;2023-01-26T03:47:34;101385.66;;;-2.66;100.00
68077;BME280;54866;53.458;14.540;2023-01-26T03:50:22;101386.02;;;-2.66;100.00
68077;BME280;54866;53.458;14.540;2023-01-26T03:53:19;101386.04;;;-2.67;100.00
68077;BME280;54866;53.458;14.540;2023-01-26T03:56:07;101381.54;;;-2.66;100.00
68077;BME280;54866;53.458;14.540;2023-01-26T03:58:50;101377.06;;;-2.67;100.00
68077;BME280;54866;53.458;14.540;2023-01-26T04:01:21;101374.84;;;-2.68;100.00
68077;BME280;54866;53.458;14.540;2023-01-26T04:03:54;101370.38;;;-2.69;100.00
68077;BME280;54866;53.458;14.540;2023-01-26T04:06:42;101369.48;;;-2.68;100.00
68077;BME280;54866;53.458;14.540;2023-01-26T04:09:29;101363.79;;;-2.67;100.00
68077;BME280;54866;53.458;14.540;2023-01-26T04:11:59;101356.55;;;-2.67;100.00
68077;BME280;54866;53.458;14.540;2023-01-26T04:14:29;101351.89;;;-2.67;100.00
68077;BME280;54866;53.458;14.540;2023-01-26T04:17:16;101353.42;;;-2.66;100.00
68077;BME280;54866;53.458;14.540;2023-01-26T04:20:04;101354.95;;;-2.65;100.00
68077;BME280;54866;53.458;14.540;2023-01-26T04:22:51;101348.42;;;-2.66;100.00
68077;BME280;54866;53.458;14.540;2023-01-26T04:25:21;101349.27;;;-2.65;100.00
68077;BME280;54866;53.458;14.540;2023-01-26T04:27:51;101348.73;;;-2.64;100.00
68077;BME280;54866;53.458;14.540;2023-01-26T04:30:21;101346.29;;;-2.62;100.00
68077;BME280;54866;53.458;14.540;2023-01-26T04:32:52;101350.41;;;-2.60;100.00
68077;BME280;54866;53.458;14.540;2023-01-26T04:35:22;101353.01;;;-2.59;100.00
68077;BME280;54866;53.458;14.540;2023-01-26T04:37:51;101348.88;;;-2.60;100.00
68077;BME280;54866;53.458;14.540;2023-01-26T04:40:21;101344.41;;;-2.63;100.00
68077;BME280;54866;53.458;14.540;2023-01-26T04:42:50;101333.80;;;-2.69;100.00
68077;BME280;54866;53.458;14.540;2023-01-26T04:45:20;101335.02;;;-2.70;100.00
68077;BME280;54866;53.458;14.540;2023-01-26T04:47:49;101326.97;;;-2.73;100.00
68077;BME280;54866;53.458;14.540;2023-01-26T04:50:19;101329.23;;;-2.75;100.00
68077;BME280;54866;53.458;14.540;2023-01-26T04:52:48;101337.52;;;-2.76;100.00
68077;BME280;54866;53.458;14.540;2023-01-26T04:55:18;101335.10;;;-2.75;100.00
68077;BME280;54866;53.458;14.540;2023-01-26T04:57:47;101341.61;;;-2.72;100.00
68077;BME280;54866;53.458;14.540;2023-01-26T05:00:18;101340.20;;;-2.70;100.00
68077;BME280;54866;53.458;14.540;2023-01-26T05:02:48;101338.83;;;-2.70;100.00
68077;BME280;54866;53.458;14.540;2023-01-26T05:05:18;101339.53;;;-2.71;100.00
68077;BME280;54866;53.458;14.540;2023-01-26T05:07:47;101340.58;;;-2.72;100.00
68077;BME280;54866;53.458;14.540;2023-01-26T05:10:18;101344.73;;;-2.73;100.00
68077;BME280;54866;53.458;14.540;2023-01-26T05:12:48;101346.42;;;-2.71;100.00
68077;BME280;54866;53.458;14.540;2023-01-26T05:15:17;101345.20;;;-2.69;100.00
68077;BME280;54866;53.458;14.540;2023-01-26T05:17:47;101346.54;;;-2.67;100.00
68077;BME280;54866;53.458;14.540;2023-01-26T05:20:16;101339.63;;;-2.66;100.00
68077;BME280;54866;53.458;14.540;2023-01-26T05:22:47;101339.27;;;-2.64;100.00
68077;BME280;54866;53.458;14.540;2023-01-26T05:25:17;101335.96;;;-2.63;100.00
68077;BME280;54866;53.458;14.540;2023-01-26T05:27:47;101334.23;;;-2.63;100.00
68077;BME280;54866;53.458;14.540;2023-01-26T05:30:17;101335.98;;;-2.64;100.00
68077;BME280;54866;53.458;14.540;2023-01-26T05:32:47;101335.80;;;-2.65;100.00
68077;BME280;54866;53.458;14.540;2023-01-26T05:35:16;101338.19;;;-2.62;100.00
68077;BME280;54866;53.458;14.540;2023-01-26T05:37:46;101336.63;;;-2.60;100.00
68077;BME280;54866;53.458;14.540;2023-01-26T05:40:16;101336.61;;;-2.59;100.00
68077;BME280;54866;53.458;14.540;2023-01-26T05:42:45;101340.19;;;-2.56;100.00
68077;BME280;54866;53.458;14.540;2023-01-26T05:45:15;101348.09;;;-2.54;100.00
68077;BME280;54866;53.458;14.540;2023-01-26T05:47:45;101348.40;;;-2.52;100.00
68077;BME280;54866;53.458;14.540;2023-01-26T05:50:16;101345.80;;;-2.51;100.00
68077;BME280;54866;53.458;14.540;2023-01-26T05:52:45;101341.59;;;-2.47;100.00
68077;BME280;54866;53.458;14.540;2023-01-26T05:55:15;101338.79;;;-2.45;100.00
68077;BME280;54866;53.458;14.540;2023-01-26T05:57:44;101341.20;;;-2.43;100.00
68077;BME280;54866;53.458;14.540;2023-01-26T06:00:15;101342.41;;;-2.42;100.00
68077;BME280;54866;53.458;14.540;2023-01-26T06:02:45;101342.42;;;-2.43;100.00
68077;BME280;54866;53.458;14.540;2023-01-26T06:05:14;101346.70;;;-2.40;100.00
68077;BME280;54866;53.458;14.540;2023-01-26T06:07:44;101346.16;;;-2.39;100.00
68077;BME280;54866;53.458;14.540;2023-01-26T06:10:14;101345.27;;;-2.38;100.00
68077;BME280;54866;53.458;14.540;2023-01-26T06:12:43;101342.88;;;-2.38;100.00
68077;BME280;54866;53.458;14.540;2023-01-26T06:15:13;101342.74;;;-2.43;100.00
68077;BME280;54866;53.458;14.540;2023-01-26T06:17:43;101337.60;;;-2.46;100.00
68077;BME280;54866;53.458;14.540;2023-01-26T06:20:12;101341.77;;;-2.47;100.00
68077;BME280;54866;53.458;14.540;2023-01-26T06:22:42;101341.61;;;-2.48;100.00
68077;BME280;54866;53.458;14.540;2023-01-26T06:25:12;101339.23;;;-2.50;100.00
68077;BME280;54866;53.458;14.540;2023-01-26T06:27:41;101339.76;;;-2.50;100.00
68077;BME280;54866;53.458;14.540;2023-01-26T06:30:12;101348.90;;;-2.51;100.00
68077;BME280;54866;53.458;14.540;2023-01-26T06:32:42;101358.23;;;-2.52;100.00
68077;BME280;54866;53.458;14.540;2023-01-26T06:35:15;101360.64;;;-2.50;100.00
68077;BME280;54866;53.458;14.540;2023-01-26T06:37:45;101360.95;;;-2.49;100.00
68077;BME280;54866;53.458;14.540;2023-01-26T06:40:16;101357.14;;;-2.48;100.00
68077;BME280;54866;53.458;14.540;2023-01-26T06:42:49;101353.19;;;-2.49;100.00
68077;BME280;54866;53.458;14.540;2023-01-26T06:45:19;101353.56;;;-2.51;100.00
68077;BME280;54866;53.458;14.540;2023-01-26T06:47:49;101351.35;;;-2.53;100.00
68077;BME280;54866;53.458;14.540;2023-01-26T06:50:21;101355.83;;;-2.52;100.00
68077;BME280;54866;53.458;14.540;2023-01-26T06:52:55;101352.35;;;-2.50;100.00
68077;BME280;54866;53.458;14.540;2023-01-26T06:55:35;101354.94;;;-2.50;100.00
68077;BME280;54866;53.458;14.540;2023-01-26T06:58:05;101355.11;;;-2.50;100.00
68077;BME280;54866;53.458;14.540;2023-01-26T07:00:35;101346.27;;;-2.48;100.00
68077;BME280;54866;53.458;14.540;2023-01-26T07:03:07;101346.24;;;-2.47;100.00
68077;BME280;54866;53.458;14.540;2023-01-26T07:05:37;101347.59;;;-2.44;100.00
68077;BME280;54866;53.458;14.540;2023-01-26T07:08:06;101348.27;;;-2.41;100.00
68077;BME280;54866;53.458;14.540;2023-01-26T07:10:36;101346.00;;;-2.40;100.00
68077;BME280;54866;53.458;14.540;2023-01-26T07:13:06;101346.67;;;-2.38;100.00
68077;BME280;54866;53.458;14.540;2023-01-26T07:15:36;101349.41;;;-2.37;100.00
68077;BME280;54866;53.458;14.540;2023-01-26T07:18:05;101355.95;;;-2.36;100.00
68077;BME280;54866;53.458;14.540;2023-01-26T07:20:35;101355.06;;;-2.35;100.00
68077;BME280;54866;53.458;14.540;2023-01-26T07:23:05;101353.85;;;-2.34;100.00
68077;BME280;54866;53.458;14.540;2023-01-26T07:25:34;101356.09;;;-2.35;100.00
68077;BME280;54866;53.458;14.540;2023-01-26T07:28:04;101351.79;;;-2.34;100.00
68077;BME280;54866;53.458;14.540;2023-01-26T07:30:37;101346.95;;;-2.35;100.00
68077;BME280;54866;53.458;14.540;2023-01-26T07:33:06;101344.39;;;-2.36;100.00
68077;BME280;54866;53.458;14.540;2023-01-26T07:35:36;101348.53;;;-2.37;100.00
68077;BME280;54866;53.458;14.540;2023-01-26T07:38:05;101345.95;;;-2.37;100.00
68077;BME280;54866;53.458;14.540;2023-01-26T07:40:35;101347.23;;;-2.41;100.00
68077;BME280;54866;53.458;14.540;2023-01-26T07:43:04;101350.35;;;-2.42;100.00
68077;BME280;54866;53.458;14.540;2023-01-26T07:45:34;101347.59;;;-2.42;100.00
68077;BME280;54866;53.458;14.540;2023-01-26T07:48:04;101349.83;;;-2.41;100.00
68077;BME280;54866;53.458;14.540;2023-01-26T07:50:34;101350.33;;;-2.40;100.00
68077;BME280;54866;53.458;14.540;2023-01-26T07:53:03;101352.70;;;-2.38;100.00
68077;BME280;54866;53.458;14.540;2023-01-26T07:55:33;101352.17;;;-2.37;100.00
68077;BME280;54866;53.458;14.540;2023-01-26T07:58:03;101353.35;;;-2.36;100.00
68077;BME280;54866;53.458;14.540;2023-01-26T08:00:32;101351.63;;;-2.35;100.00
68077;BME280;54866;53.458;14.540;2023-01-26T08:03:02;101350.21;;;-2.34;100.00
68077;BME280;54866;53.458;14.540;2023-01-26T08:05:33;101351.92;;;-2.32;100.00
68077;BME280;54866;53.458;14.540;2023-01-26T08:08:04;101355.00;;;-2.31;100.00
68077;BME280;54866;53.458;14.540;2023-01-26T08:10:34;101355.32;;;-2.29;100.00
68077;BME280;54866;53.458;14.540;2023-01-26T08:13:03;101353.89;;;-2.26;100.00
68077;BME280;54866;53.458;14.540;2023-01-26T08:15:33;101345.26;;;-2.24;100.00
68077;BME280;54866;53.458;14.540;2023-01-26T08:18:02;101345.94;;;-2.24;100.00
68077;BME280;54866;53.458;14.540;2023-01-26T08:20:33;101346.77;;;-2.22;100.00
68077;BME280;54866;53.458;14.540;2023-01-26T08:23:02;101351.43;;;-2.22;100.00
68077;BME280;54866;53.458;14.540;2023-01-26T08:25:32;101348.48;;;-2.21;100.00
68077;BME280;54866;53.458;14.540;2023-01-26T08:28:01;101355.70;;;-2.19;100.00
68077;BME280;54866;53.458;14.540;2023-01-26T08:30:32;101357.38;;;-2.17;100.00
68077;BME280;54866;53.458;14.540;2023-01-26T08:33:01;101355.42;;;-2.13;100.00
68077;BME280;54866;53.458;14.540;2023-01-26T08:35:33;101356.58;;;-2.09;100.00
68077;BME280;54866;53.458;14.540;2023-01-26T08:38:02;101363.98;;;-2.07;100.00
68077;BME280;54866;53.458;14.540;2023-01-26T08:40:32;101357.19;;;-2.03;100.00
68077;BME280;54866;53.458;14.540;2023-01-26T08:43:02;101358.33;;;-1.99;100.00
68077;BME280;54866;53.458;14.540;2023-01-26T08:45:32;101347.30;;;-2.01;100.00
68077;BME280;54866;53.458;14.540;2023-01-26T08:48:02;101350.96;;;-2.03;100.00
68077;BME280;54866;53.458;14.540;2023-01-26T08:50:32;101351.14;;;-2.03;100.00
68077;BME280;54866;53.458;14.540;2023-01-26T08:53:01;101356.16;;;-2.04;100.00
68077;BME280;54866;53.458;14.540;2023-01-26T08:55:31;101354.95;;;-2.04;100.00
68077;BME280;54866;53.458;14.540;2023-01-26T08:58:00;101359.81;;;-2.05;100.00
68077;BME280;54866;53.458;14.540;2023-01-26T09:00:30;101358.45;;;-2.07;100.00
68077;BME280;54866;53.458;14.540;2023-01-26T09:03:00;101357.80;;;-2.10;100.00
68077;BME280;54866;53.458;14.540;2023-01-26T09:05:32;101358.31;;;-2.11;100.00
68077;BME280;54866;53.458;14.540;2023-01-26T09:08:03;101360.58;;;-2.11;100.00
68077;BME280;54866;53.458;14.540;2023-01-26T09:10:33;101358.65;;;-2.10;100.00
68077;BME280;54866;53.458;14.540;2023-01-26T09:13:03;101354.66;;;-2.07;100.00
68077;BME280;54866;53.458;14.540;2023-01-26T09:15:32;101357.54;;;-2.04;100.00
68077;BME280;54866;53.458;14.540;2023-01-26T09:18:02;101350.40;;;-2.00;100.00
68077;BME280;54866;53.458;14.540;2023-01-26T09:20:32;101347.91;;;-1.97;100.00
68077;BME280;54866;53.458;14.540;2023-01-26T09:23:01;101351.02;;;-1.96;100.00
68077;BME280;54866;53.458;14.540;2023-01-26T09:25:31;101346.68;;;-1.96;100.00
68077;BME280;54866;53.458;14.540;2023-01-26T09:28:02;101348.73;;;-1.94;100.00
68077;BME280;54866;53.458;14.540;2023-01-26T09:30:32;101349.25;;;-1.94;100.00
68077;BME280;54866;53.458;14.540;2023-01-26T09:33:04;101347.83;;;-1.92;100.00
68077;BME280;54866;53.458;14.540;2023-01-26T09:35:34;101341.27;;;-1.90;100.00
68077;BME280;54866;53.458;14.540;2023-01-26T09:38:03;101348.44;;;-1.86;100.00
68077;BME280;54866;53.458;14.540;2023-01-26T09:40:39;101348.39;;;-1.83;100.00
68077;BME280;54866;53.458;14.540;2023-01-26T09:43:23;101343.68;;;-1.81;100.00
68077;BME280;54866;53.458;14.540;2023-01-26T09:46:02;101338.48;;;-1.80;100.00
68077;BME280;54866;53.458;14.540;2023-01-26T09:48:41;101343.31;;;-1.79;100.00
68077;BME280;54866;53.458;14.540;2023-01-26T09:51:14;101344.69;;;-1.79;100.00
68077;BME280;54866;53.458;14.540;2023-01-26T09:53:51;101345.69;;;-1.77;100.00
68077;BME280;54866;53.458;14.540;2023-01-26T09:56:24;101348.62;;;-1.77;100.00
68077;BME280;54866;53.458;14.540;2023-01-26T09:59:02;101340.02;;;-1.79;100.00
68077;BME280;54866;53.458;14.540;2023-01-26T10:01:39;101332.45;;;-1.80;100.00
68077;BME280;54866;53.458;14.540;2023-01-26T10:04:18;101330.20;;;-1.79;100.00
68077;BME280;54866;53.458;14.540;2023-01-26T10:06:52;101326.91;;;-1.80;100.00
68077;BME280;54866;53.458;14.540;2023-01-26T10:09:25;101326.42;;;-1.81;100.00
68077;BME280;54866;53.458;14.540;2023-01-26T10:12:02;101324.92;;;-1.84;100.00
68077;BME280;54866;53.458;14.540;2023-01-26T10:14:36;101321.30;;;-1.84;100.00
68077;BME280;54866;53.458;14.540;2023-01-26T10:17:14;101311.08;;;-1.83;100.00
68077;BME280;54866;53.458;14.540;2023-01-26T10:19:48;101305.69;;;-1.81;100.00
68077;BME280;54866;53.458;14.540;2023-01-26T10:22:19;101308.11;;;-1.80;100.00
68077;BME280;54866;53.458;14.540;2023-01-26T10:24:51;101306.17;;;-1.79;100.00
68077;BME280;54866;53.458;14.540;2023-01-26T10:27:25;101305.92;;;-1.75;100.00
68077;BME280;54866;53.458;14.540;2023-01-26T10:29:56;101304.67;;;-1.72;100.00
68077;BME280;54866;53.458;14.540;2023-01-26T10:32:26;101304.42;;;-1.68;100.00
68077;BME280;54866;53.458;14.540;2023-01-26T10:34:55;101301.13;;;-1.67;100.00
68077;BME280;54866;53.458;14.540;2023-01-26T10:37:28;101297.29;;;-1.74;100.00
68077;BME280;54866;53.458;14.540;2023-01-26T10:40:00;101303.13;;;-1.83;100.00
68077;BME280;54866;53.458;14.540;2023-01-26T10:42:32;101295.30;;;-1.88;100.00
68077;BME280;54866;53.458;14.540;2023-01-26T10:45:04;101289.42;;;-1.88;100.00
68077;BME280;54866;53.458;14.540;2023-01-26T10:47:34;101286.66;;;-1.88;100.00
68077;BME280;54866;53.458;14.540;2023-01-26T10:50:21;101286.34;;;-1.90;100.00
68077;BME280;54866;53.458;14.540;2023-01-26T10:53:01;101284.48;;;-1.94;100.00
68077;BME280;54866;53.458;14.540;2023-01-26T10:55:32;101281.84;;;-2.00;100.00
68077;BME280;54866;53.458;14.540;2023-01-26T10:58:03;101281.23;;;-2.05;100.00
68077;BME280;54866;53.458;14.540;2023-01-26T11:00:34;101278.20;;;-2.09;100.00
68077;BME280;54866;53.458;14.540;2023-01-26T11:03:15;101274.95;;;-2.11;100.00
68077;BME280;54866;53.458;14.540;2023-01-26T11:05:44;101272.14;;;-2.08;100.00
68077;BME280;54866;53.458;14.540;2023-01-26T11:08:31;101273.00;;;-2.07;100.00
68077;BME280;54866;53.458;14.540;2023-01-26T11:11:02;101277.08;;;-2.03;100.00
68077;BME280;54866;53.458;14.540;2023-01-26T11:13:34;101278.56;;;-2.00;100.00
68077;BME280;54866;53.458;14.540;2023-01-26T11:16:07;101280.91;;;-1.96;100.00
68077;BME280;54866;53.458;14.540;2023-01-26T11:18:45;101280.36;;;-1.95;100.00
68077;BME280;54866;53.458;14.540;2023-01-26T11:21:23;101280.86;;;-1.94;100.00
68077;BME280;54866;53.458;14.540;2023-01-26T11:24:02;101278.66;;;-1.96;100.00
68077;BME280;54866;53.458;14.540;2023-01-26T11:26:42;101273.33;;;-1.97;100.00
68077;BME280;54866;53.458;14.540;2023-01-26T11:29:43;101275.23;;;-1.97;100.00
68077;BME280;54866;53.458;14.540;2023-01-26T11:32:24;101275.07;;;-1.98;100.00
68077;BME280;54866;53.458;14.540;2023-01-26T11:35:08;101274.21;;;-1.98;100.00
68077;BME280;54866;53.458;14.540;2023-01-26T11:37:44;101275.59;;;-1.98;100.00
68077;BME280;54866;53.458;14.540;2023-01-26T11:40:27;101269.54;;;-1.98;100.00
68077;BME280;54866;53.458;14.540;2023-01-26T11:43:21;101277.73;;;-1.93;100.00
68077;BME280;54866;53.458;14.540;2023-01-26T11:46:12;101274.73;;;-1.88;100.00
68077;BME280;54866;53.458;14.540;2023-01-26T11:48:53;101275.89;;;-1.86;100.00
68077;BME280;54866;53.458;14.540;2023-01-26T11:51:34;101268.27;;;-1.85;100.00
68077;BME280;54866;53.458;14.540;2023-01-26T11:54:32;101264.61;;;-1.82;100.00
68077;BME280;54866;53.458;14.540;2023-01-26T11:57:16;101261.06;;;-1.77;100.00
68077;BME280;54866;53.458;14.540;2023-01-26T11:59:52;101254.79;;;-1.75;100.00
68077;BME280;54866;53.458;14.540;2023-01-26T12:02:29;101249.41;;;-1.74;100.00
68077;BME280;54866;53.458;14.540;2023-01-26T12:05:01;101245.45;;;-1.73;100.00
68077;BME280;54866;53.458;14.540;2023-01-26T12:07:39;101242.64;;;-1.70;100.00
68077;BME280;54866;53.458;14.540;2023-01-26T12:10:26;101243.45;;;-1.69;100.00
68077;BME280;54866;53.458;14.540;2023-01-26T12:13:02;101246.33;;;-1.65;100.00
68077;BME280;54866;53.458;14.540;2023-01-26T12:15:37;101243.66;;;-1.62;100.00
68077;BME280;54866;53.458;14.540;2023-01-26T12:18:13;101237.08;;;-1.61;100.00
68077;BME280;54866;53.458;14.540;2023-01-26T12:20:52;101231.34;;;-1.59;100.00
68077;BME280;54866;53.458;14.540;2023-01-26T12:23:30;101226.00;;;-1.60;100.00
68077;BME280;54866;53.458;14.540;2023-01-26T12:26:08;101223.63;;;-1.62;100.00
68077;BME280;54866;53.458;14.540;2023-01-26T12:28:45;101224.67;;;-1.63;100.00
68077;BME280;54866;53.458;14.540;2023-01-26T12:31:19;101225.21;;;-1.64;100.00
68077;BME280;54866;53.458;14.540;2023-01-26T12:33:52;101218.30;;;-1.64;100.00
68077;BME280;54866;53.458;14.540;2023-01-26T12:36:31;101213.46;;;-1.63;100.00
68077;BME280;54866;53.458;14.540;2023-01-26T12:39:12;101214.27;;;-1.60;100.00
68077;BME280;54866;53.458;14.540;2023-01-26T12:42:08;101216.33;;;-1.60;100.00
68077;BME280;54866;53.458;14.540;2023-01-26T12:44:45;101222.52;;;-1.58;100.00
68077;BME280;54866;53.458;14.540;2023-01-26T12:47:18;101219.20;;;-1.57;100.00
68077;BME280;54866;53.458;14.540;2023-01-26T12:49:55;101219.71;;;-1.55;100.00
68077;BME280;54866;53.458;14.540;2023-01-26T12:52:28;101213.17;;;-1.57;100.00
68077;BME280;54866;53.458;14.540;2023-01-26T12:55:02;101219.72;;;-1.56;100.00
68077;BME280;54866;53.458;14.540;2023-01-26T12:57:37;101215.73;;;-1.55;100.00
68077;BME280;54866;53.458;14.540;2023-01-26T13:00:19;101220.34;;;-1.52;100.00